createdAt,value
2018-01-26T00:02:08.745Z,82.20
2018-01-26T00:04:36.199Z,82.10
2018-01-26T00:07:03.646Z,82.10
2018-01-26T00:09:31.090Z,82.60
2018-01-26T00:11:58.547Z,82.80
2018-01-26T00:14:26.000Z,82.80
2018-01-26T00:16:54.235Z,83.10
2018-01-26T00:19:21.671Z,83.00
2018-01-26T00:21:49.126Z,82.90
2018-01-26T00:24:16.578Z,82.50
2018-01-26T00:26:44.039Z,82.60
2018-01-26T00:29:11.482Z,82.80
2018-01-26T00:31:38.934Z,82.80
2018-01-26T00:34:06.395Z,82.90
2018-01-26T00:36:33.861Z,82.80
2018-01-26T00:39:01.314Z,83.30
2018-01-26T00:41:28.762Z,83.30
2018-01-26T00:43:56.214Z,83.50
2018-01-26T00:46:23.663Z,83.40
2018-01-26T00:48:51.127Z,83.40
2018-01-26T00:51:18.586Z,83.20
2018-01-26T00:53:46.040Z,83.20
2018-01-26T00:56:13.490Z,83.40
2018-01-26T00:58:40.955Z,83.20
2018-01-26T01:01:08.413Z,83.00
2018-01-26T01:03:35.867Z,83.20
2018-01-26T01:06:03.323Z,83.00
2018-01-26T01:08:30.778Z,82.50
2018-01-26T01:10:58.235Z,82.00
2018-01-26T01:13:25.694Z,82.10
2018-01-26T01:15:53.152Z,81.60
2018-01-26T01:18:20.607Z,81.90
2018-01-26T01:20:48.056Z,80.60
2018-01-26T01:23:15.521Z,80.00
2018-01-26T01:25:42.968Z,78.90
2018-01-26T01:28:10.422Z,78.60
2018-01-26T01:30:37.866Z,78.70
2018-01-26T01:33:05.326Z,78.60
2018-01-26T01:35:32.773Z,79.00
2018-01-26T01:38:00.238Z,79.50
2018-01-26T01:40:27.689Z,79.90
2018-01-26T01:42:55.145Z,80.50
2018-01-26T01:45:22.608Z,80.70
2018-01-26T01:47:50.063Z,80.90
2018-01-26T01:50:17.515Z,81.20
2018-01-26T01:52:44.971Z,81.80
2018-01-26T01:55:12.428Z,82.00
2018-01-26T01:57:39.894Z,82.20
2018-01-26T02:00:07.343Z,82.10
2018-01-26T02:02:34.795Z,82.40
2018-01-26T02:05:02.250Z,82.30
2018-01-26T02:07:29.716Z,81.80
2018-01-26T02:09:57.163Z,81.20
2018-01-26T02:12:24.603Z,81.60
2018-01-26T02:14:52.053Z,81.30
2018-01-26T02:17:19.500Z,81.00
2018-01-26T02:19:47.718Z,81.10
2018-01-26T02:22:15.166Z,81.10
2018-01-26T02:25:00.311Z,81.70
2018-01-26T02:27:27.762Z,81.50
2018-01-26T02:29:55.210Z,81.70
2018-01-26T02:32:23.422Z,82.50
2018-01-26T02:34:50.876Z,82.50
2018-01-26T02:37:18.313Z,82.90
2018-01-26T02:39:45.779Z,83.10
2018-01-26T02:42:13.214Z,83.70
2018-01-26T02:44:41.439Z,84.10
2018-01-26T02:47:08.935Z,84.10
2018-01-26T02:49:37.155Z,84.40
2018-01-26T02:52:04.605Z,84.40
2018-01-26T02:54:32.067Z,84.60
2018-01-26T02:56:59.515Z,84.90
2018-01-26T02:59:26.978Z,85.10
2018-01-26T03:01:54.430Z,85.10
2018-01-26T03:04:21.887Z,85.30
2018-01-26T03:06:49.339Z,85.50
2018-01-26T03:09:16.802Z,85.70
2018-01-26T03:11:44.255Z,85.80
2018-01-26T03:14:11.712Z,86.10
2018-01-26T03:16:39.161Z,86.10
2018-01-26T03:19:06.631Z,85.90
2018-01-26T03:21:34.081Z,86.20
2018-01-26T03:24:01.536Z,85.30
2018-01-26T03:26:29.030Z,85.00
2018-01-26T03:28:56.483Z,84.90
2018-01-26T03:31:23.944Z,85.30
2018-01-26T03:33:51.382Z,85.70
2018-01-26T03:36:18.839Z,85.70
2018-01-26T03:38:46.290Z,85.80
2018-01-26T03:41:13.747Z,85.40
2018-01-26T03:43:41.195Z,85.20
2018-01-26T03:46:08.650Z,84.90
2018-01-26T03:48:36.099Z,85.20
2018-01-26T03:51:03.550Z,85.00
2018-01-26T03:53:31.011Z,84.80
2018-01-26T03:55:58.466Z,83.80
2018-01-26T03:58:25.922Z,84.00
2018-01-26T04:00:53.379Z,84.10
2018-01-26T04:03:20.825Z,84.00
2018-01-26T04:05:48.281Z,83.60
2018-01-26T04:08:15.719Z,83.70
2018-01-26T04:10:43.191Z,83.80
2018-01-26T04:13:11.386Z,84.00
2018-01-26T04:15:38.847Z,84.00
2018-01-26T04:18:06.291Z,84.30
2018-01-26T04:20:33.747Z,84.50
2018-01-26T04:23:01.211Z,84.50
2018-01-26T04:25:28.667Z,84.70
2018-01-26T04:27:56.110Z,84.90
2018-01-26T04:30:23.575Z,85.20
2018-01-26T04:32:51.032Z,85.40
2018-01-26T04:35:18.488Z,85.90
2018-01-26T04:37:45.948Z,86.30
2018-01-26T04:40:13.398Z,86.70
2018-01-26T04:42:40.856Z,87.10
2018-01-26T04:45:08.310Z,87.30
2018-01-26T04:47:35.771Z,87.70
2018-01-26T04:50:03.227Z,88.00
2018-01-26T04:52:30.683Z,88.50
2018-01-26T04:54:58.143Z,89.10
2018-01-26T04:57:25.595Z,89.20
2018-01-26T04:59:53.051Z,89.60
2018-01-26T05:02:20.521Z,90.00
2018-01-26T05:04:47.955Z,90.10
2018-01-26T05:07:15.410Z,90.20
2018-01-26T05:09:42.842Z,90.30
2018-01-26T05:12:11.059Z,90.60
2018-01-26T05:14:38.502Z,90.60
2018-01-26T05:17:05.962Z,90.70
2018-01-26T05:19:33.423Z,90.40
2018-01-26T05:22:00.870Z,90.40
2018-01-26T05:24:28.331Z,90.40
2018-01-26T05:26:55.788Z,90.50
2018-01-26T05:29:23.237Z,90.40
2018-01-26T05:31:50.682Z,90.50
2018-01-26T05:34:18.125Z,90.70
2018-01-26T05:36:46.366Z,91.00
2018-01-26T05:39:13.828Z,90.90
2018-01-26T05:41:41.279Z,91.00
2018-01-26T05:44:08.733Z,91.00
2018-01-26T05:46:36.174Z,91.00
2018-01-26T05:49:03.623Z,91.10
2018-01-26T05:51:31.073Z,91.30
2018-01-26T05:53:58.523Z,91.20
2018-01-26T05:56:25.984Z,91.00
2018-01-26T05:58:53.437Z,91.10
2018-01-26T06:01:20.892Z,91.20
2018-01-26T06:03:48.353Z,91.30
2018-01-26T06:06:15.808Z,91.50
2018-01-26T06:08:43.264Z,91.50
2018-01-26T06:11:10.716Z,91.70
2018-01-26T06:13:38.174Z,91.70
2018-01-26T06:16:05.615Z,91.70
2018-01-26T06:18:33.066Z,91.20
2018-01-26T06:21:00.515Z,90.90
2018-01-26T06:23:28.740Z,91.10
2018-01-26T06:25:58.194Z,91.10
2018-01-26T06:28:25.651Z,91.20
2018-01-26T06:30:53.094Z,91.20
2018-01-26T06:33:21.319Z,91.90
2018-01-26T06:35:48.775Z,91.90
2018-01-26T06:38:16.231Z,92.20
2018-01-26T06:40:43.687Z,91.00
2018-01-26T06:43:11.142Z,90.50
2018-01-26T06:45:38.586Z,90.90
2018-01-26T06:48:06.044Z,90.80
2018-01-26T06:50:33.499Z,90.80
2018-01-26T06:53:00.954Z,90.90
2018-01-26T06:55:28.459Z,91.00
2018-01-26T06:57:56.726Z,91.10
2018-01-26T07:00:24.179Z,91.10
2018-01-26T07:02:51.626Z,91.30
2018-01-26T07:05:19.078Z,91.30
2018-01-26T07:07:46.534Z,91.40
2018-01-26T07:10:13.986Z,91.50
2018-01-26T07:12:41.439Z,91.60
2018-01-26T07:15:08.900Z,91.70
2018-01-26T07:17:36.334Z,91.60
2018-01-26T07:20:03.796Z,91.50
2018-01-26T07:22:31.251Z,91.40
2018-01-26T07:24:58.831Z,91.40
2018-01-26T07:27:26.701Z,91.40
2018-01-26T07:29:54.142Z,91.30
2018-01-26T07:32:21.592Z,91.30
2018-01-26T07:34:49.059Z,91.50
2018-01-26T07:40:10.046Z,91.80
2018-01-26T07:42:37.478Z,91.70
2018-01-26T07:45:04.934Z,91.70
2018-01-26T07:47:33.151Z,91.70
2018-01-26T07:50:00.605Z,91.70
2018-01-26T07:52:28.951Z,91.80
2018-01-26T07:54:57.171Z,91.40
2018-01-26T07:57:24.621Z,91.40
2018-01-26T07:59:52.826Z,91.30
2018-01-26T08:02:20.279Z,91.30
2018-01-26T08:04:47.722Z,91.20
2018-01-26T08:07:15.183Z,91.10
2018-01-26T08:09:42.635Z,91.20
2018-01-26T08:12:10.080Z,91.20
2018-01-26T08:14:37.530Z,91.20
2018-01-26T08:17:04.984Z,91.30
2018-01-26T08:19:32.450Z,91.30
2018-01-26T08:21:59.910Z,91.20
2018-01-26T08:24:27.376Z,91.00
2018-01-26T08:26:54.823Z,90.60
2018-01-26T08:29:22.269Z,90.40
2018-01-26T08:31:49.716Z,90.30
2018-01-26T08:34:17.167Z,90.00
2018-01-26T08:36:44.610Z,89.40
2018-01-26T08:39:12.060Z,89.20
2018-01-26T08:41:39.506Z,88.20
2018-01-26T08:44:07.714Z,86.90
2018-01-26T08:46:35.292Z,86.90
2018-01-26T08:49:02.793Z,86.50
2018-01-26T08:51:31.028Z,87.00
2018-01-26T08:53:58.483Z,86.80
2018-01-26T08:56:25.939Z,87.30
2018-01-26T08:58:53.383Z,87.50
2018-01-26T09:01:20.843Z,87.30
2018-01-26T09:03:48.286Z,87.50
2018-01-26T09:06:15.738Z,87.80
2018-01-26T09:08:43.227Z,88.20
2018-01-26T09:11:10.691Z,88.20
2018-01-26T09:13:38.139Z,88.50
2018-01-26T09:16:05.591Z,88.80
2018-01-26T09:18:33.058Z,88.90
2018-01-26T09:21:00.504Z,88.60
2018-01-26T09:23:27.962Z,88.40
2018-01-26T09:25:55.473Z,88.60
2018-01-26T09:28:22.920Z,88.90
2018-01-26T09:30:51.140Z,88.20
2018-01-26T09:33:18.594Z,88.20
2018-01-26T09:35:46.034Z,87.30
2018-01-26T09:38:13.494Z,87.40
2018-01-26T09:40:40.947Z,87.60
2018-01-26T09:43:08.403Z,87.40
2018-01-26T09:45:35.858Z,87.40
2018-01-26T09:48:03.322Z,88.20
2018-01-26T09:50:30.771Z,87.60
2018-01-26T09:52:58.229Z,87.70
2018-01-26T09:55:25.683Z,88.00
2018-01-26T09:57:53.141Z,88.00
2018-01-26T10:00:20.596Z,88.10
2018-01-26T10:02:48.053Z,87.70
2018-01-26T10:05:15.506Z,88.20
2018-01-26T10:07:43.722Z,86.50
2018-01-26T10:10:11.175Z,86.50
2018-01-26T10:12:38.618Z,85.30
2018-01-26T10:15:06.058Z,84.30
2018-01-26T10:17:33.506Z,84.20
2018-01-26T10:20:00.943Z,84.50
2018-01-26T10:22:28.387Z,83.90
2018-01-26T10:24:56.605Z,81.70
2018-01-26T10:27:24.046Z,81.60
2018-01-26T10:29:51.491Z,81.00
2018-01-26T10:32:18.939Z,81.10
2018-01-26T10:34:46.378Z,81.10
2018-01-26T10:37:14.592Z,81.00
2018-01-26T10:39:42.031Z,81.00
2018-01-26T10:42:09.474Z,81.00
2018-01-26T10:44:36.910Z,80.40
2018-01-26T10:47:04.370Z,78.50
2018-01-26T10:49:32.588Z,77.80
2018-01-26T10:52:00.040Z,77.70
2018-01-26T10:54:27.503Z,77.10
2018-01-26T10:56:54.998Z,77.50
2018-01-26T10:59:22.450Z,77.30
2018-01-26T11:01:49.886Z,78.00
2018-01-26T11:04:17.343Z,77.80
2018-01-26T11:06:44.782Z,77.60
2018-01-26T11:09:12.238Z,78.70
2018-01-26T11:11:39.675Z,79.40
2018-01-26T11:14:07.127Z,80.00
2018-01-26T11:16:35.528Z,79.60
2018-01-26T11:19:02.978Z,79.60
2018-01-26T11:21:30.418Z,80.90
2018-01-26T11:23:57.858Z,80.40
2018-01-26T11:26:25.303Z,80.50
2018-01-26T11:28:52.748Z,79.30
2018-01-26T11:31:20.196Z,78.50
2018-01-26T11:33:47.651Z,78.70
2018-01-26T11:36:15.085Z,78.40
2018-01-26T11:38:42.527Z,78.00
2018-01-26T11:41:09.966Z,77.80
2018-01-26T11:43:37.416Z,78.00
2018-01-26T11:46:05.631Z,78.00
2018-01-26T11:48:33.083Z,77.90
2018-01-26T11:51:00.519Z,77.50
2018-01-26T11:53:27.961Z,77.80
2018-01-26T11:55:56.166Z,77.40
2018-01-26T11:58:23.624Z,77.40
2018-01-26T12:00:51.077Z,77.10
2018-01-26T12:03:18.510Z,77.10
2018-01-26T12:05:45.958Z,75.60
2018-01-26T12:08:14.162Z,76.10
2018-01-26T12:10:41.624Z,76.10
2018-01-26T12:13:09.062Z,74.90
2018-01-26T12:15:36.536Z,74.40
2018-01-26T12:18:03.991Z,74.20
2018-01-26T12:20:31.459Z,73.70
2018-01-26T12:22:58.904Z,74.70
2018-01-26T12:25:26.698Z,74.70
2018-01-26T12:27:54.452Z,75.10
2018-01-26T12:30:22.225Z,74.90
2018-01-26T12:32:49.985Z,75.60
2018-01-26T12:35:17.737Z,74.90
2018-01-26T12:37:45.216Z,75.00
2018-01-26T12:40:12.719Z,75.00
2018-01-26T12:42:40.212Z,74.70
2018-01-26T12:45:07.714Z,75.50
2018-01-26T12:47:35.210Z,75.40
2018-01-26T12:50:02.711Z,75.00
2018-01-26T12:52:30.203Z,74.20
2018-01-26T12:54:57.646Z,74.70
2018-01-26T12:57:25.906Z,75.50
2018-01-26T12:59:53.398Z,75.50
2018-01-26T13:02:20.895Z,76.10
2018-01-26T13:04:48.340Z,75.20
2018-01-26T13:07:15.846Z,74.30
2018-01-26T13:09:44.105Z,75.80
2018-01-26T13:12:11.576Z,75.70
2018-01-26T13:14:39.855Z,75.00
2018-01-26T13:17:08.106Z,75.00
2018-01-26T13:19:35.551Z,75.10
2018-01-26T13:22:03.046Z,75.20
2018-01-26T13:24:31.316Z,74.70
2018-01-26T13:26:59.578Z,74.20
2018-01-26T13:29:27.053Z,74.20
2018-01-26T13:31:55.319Z,73.60
2018-01-26T13:34:23.583Z,74.20
2018-01-26T13:36:51.092Z,74.20
2018-01-26T13:39:18.578Z,74.00
2018-01-26T13:41:46.022Z,74.80
2018-01-26T13:44:13.467Z,76.50
2018-01-26T13:46:40.915Z,76.90
2018-01-26T13:49:08.355Z,76.80
2018-01-26T13:51:35.800Z,76.20
2018-01-26T13:54:04.990Z,75.90
2018-01-26T13:56:33.223Z,76.50
2018-01-26T13:59:00.680Z,76.50
2018-01-26T14:01:28.135Z,76.30
2018-01-26T14:03:55.573Z,75.30
2018-01-26T14:06:23.022Z,75.80
2018-01-26T14:08:50.949Z,76.40
2018-01-26T14:11:18.491Z,76.70
2018-01-26T14:13:58.320Z,77.00
2018-01-26T14:16:25.766Z,77.20
2018-01-26T14:18:53.207Z,78.00
2018-01-26T14:21:20.659Z,77.90
2018-01-26T14:23:48.095Z,78.00
2018-01-26T14:26:16.311Z,78.70
2018-01-26T14:28:43.747Z,78.70
2018-01-26T14:31:11.359Z,78.00
2018-01-26T14:33:39.586Z,77.80
2018-01-26T14:36:07.046Z,77.80
2018-01-26T14:38:34.495Z,78.00
2018-01-26T14:41:01.927Z,78.90
2018-01-26T14:43:29.371Z,79.70
2018-01-26T14:45:57.594Z,80.90
2018-01-26T14:48:25.040Z,80.80
2018-01-26T14:50:52.499Z,81.80
2018-01-26T14:53:19.950Z,83.40
2018-01-26T14:55:47.394Z,83.60
2018-01-26T14:58:14.846Z,84.60
2018-01-26T15:00:43.207Z,85.40
2018-01-26T15:03:12.521Z,86.60
2018-01-26T15:05:40.079Z,86.60
2018-01-26T15:08:07.615Z,87.30
2018-01-26T15:10:36.462Z,86.90
2018-01-26T15:13:03.898Z,86.60
2018-01-26T15:15:31.342Z,86.90
2018-01-26T15:17:58.796Z,86.80
2018-01-26T15:20:26.232Z,87.20
2018-01-26T15:22:55.471Z,87.80
2018-01-26T15:25:22.913Z,87.80
2018-01-26T15:27:50.366Z,87.90
2018-01-26T15:30:17.802Z,87.10
2018-01-26T15:32:46.018Z,88.00
2018-01-26T15:35:13.459Z,88.00
2018-01-26T15:37:40.935Z,88.50
2018-01-26T15:40:08.379Z,88.80
2018-01-26T15:42:36.150Z,89.20
2018-01-26T15:45:03.888Z,89.60
2018-01-26T15:47:32.398Z,89.40
2018-01-26T15:49:59.911Z,89.30
2018-01-26T15:52:28.128Z,89.60
2018-01-26T15:54:55.793Z,89.60
2018-01-26T15:57:23.282Z,90.00
2018-01-26T15:59:50.765Z,90.00
2018-01-26T16:02:19.024Z,90.20
2018-01-26T16:04:46.509Z,90.20
2018-01-26T16:07:14.774Z,90.30
2018-01-26T16:09:42.268Z,90.20
2018-01-26T16:12:09.719Z,90.50
2018-01-26T16:14:37.230Z,90.40
2018-01-26T16:17:04.718Z,90.50
2018-01-26T16:19:32.154Z,90.60
2018-01-26T16:22:00.426Z,90.60
2018-01-26T16:24:28.642Z,90.70
2018-01-26T16:26:56.139Z,90.70
2018-01-26T16:29:23.638Z,90.60
2018-01-26T16:31:51.123Z,90.40
2018-01-26T16:34:19.389Z,90.60
2018-01-26T16:36:46.869Z,90.60
2018-01-26T16:39:14.374Z,90.70
2018-01-26T16:41:42.666Z,90.90
2018-01-26T16:44:10.154Z,90.80
2018-01-26T16:46:37.654Z,91.00
2018-01-26T16:49:05.143Z,91.00
2018-01-26T16:51:32.625Z,91.10
2018-01-26T16:54:00.115Z,91.20
2018-01-26T16:56:27.596Z,91.30
2018-01-26T16:58:55.867Z,91.40
2018-01-26T17:01:24.157Z,91.70
2018-01-26T17:03:52.414Z,91.80
2018-01-26T17:06:20.227Z,91.80
2018-01-26T17:08:48.014Z,91.90
2018-01-26T17:11:15.782Z,92.20
2018-01-26T17:13:43.220Z,92.20
2018-01-26T17:16:10.787Z,92.20
2018-01-26T17:18:38.260Z,92.20
2018-01-26T17:21:05.708Z,92.20
2018-01-26T17:23:33.217Z,92.30
2018-01-26T17:26:00.662Z,92.30
2018-01-26T17:28:28.874Z,92.50
2018-01-26T17:30:56.393Z,92.50
2018-01-26T17:33:34.669Z,92.50
2018-01-26T17:36:02.170Z,92.50
2018-01-26T17:38:30.382Z,92.50
2018-01-26T17:40:57.887Z,92.50
2018-01-26T17:43:26.167Z,92.60
2018-01-26T17:45:54.383Z,92.50
2018-01-26T17:48:21.828Z,92.50
2018-01-26T17:50:49.279Z,92.90
2018-01-26T17:53:16.809Z,92.70
2018-01-26T17:55:48.261Z,92.80
2018-01-26T17:58:15.724Z,92.80
2018-01-26T18:00:43.267Z,92.80
2018-01-26T18:03:10.723Z,92.70
2018-01-26T18:05:39.078Z,92.80
2018-01-26T18:08:06.619Z,92.80
2018-01-26T18:10:34.087Z,92.80
2018-01-26T18:13:01.582Z,93.00
2018-01-26T18:15:29.845Z,93.10
2018-01-26T18:17:58.059Z,93.50
2018-01-26T18:20:25.514Z,93.10
2018-01-26T18:22:53.549Z,93.30
2018-01-26T18:25:21.827Z,93.40
2018-01-26T18:27:50.035Z,93.50
2018-01-26T18:30:17.559Z,93.40
2018-01-26T18:32:45.822Z,93.60
2018-01-26T18:35:13.263Z,93.60
2018-01-26T18:37:40.727Z,93.70
2018-01-26T18:40:08.175Z,93.60
2018-01-26T18:42:35.623Z,93.60
2018-01-26T18:45:03.075Z,93.70
2018-01-26T18:47:30.526Z,93.60
2018-01-26T18:49:58.035Z,93.60
2018-01-26T18:52:26.305Z,93.70
2018-01-26T18:54:54.523Z,93.50
2018-01-26T18:57:22.034Z,93.40
2018-01-26T18:59:50.293Z,93.50
2018-01-26T19:02:17.786Z,93.50
2018-01-26T19:04:46.047Z,93.50
2018-01-26T19:07:14.359Z,93.50
2018-01-26T19:09:42.535Z,93.60
2018-01-26T19:12:10.041Z,93.50
2018-01-26T19:14:37.538Z,93.60
2018-01-26T19:17:04.983Z,93.70
2018-01-26T19:19:32.477Z,93.70
2018-01-26T19:21:59.974Z,93.70
2018-01-26T19:24:27.458Z,93.90
2018-01-26T19:26:55.014Z,93.70
2018-01-26T19:29:22.507Z,93.70
2018-01-26T19:31:50.082Z,93.70
2018-01-26T19:34:17.677Z,93.70
2018-01-26T19:36:45.292Z,93.70
2018-01-26T19:39:12.818Z,93.70
2018-01-26T19:41:40.314Z,93.70
2018-01-26T19:44:07.806Z,93.70
2018-01-26T19:46:36.070Z,93.70
2018-01-26T19:49:04.513Z,93.60
2018-01-26T19:51:31.963Z,93.60
2018-01-26T19:53:59.481Z,93.70
2018-01-26T19:56:26.970Z,93.70
2018-01-26T19:58:54.466Z,93.70
2018-01-26T20:01:21.963Z,93.70
2018-01-26T20:04:01.339Z,93.70
2018-01-26T20:06:48.532Z,93.70
2018-01-26T20:09:16.047Z,93.70
2018-01-26T20:11:46.323Z,93.80
2018-01-26T20:14:19.496Z,93.70
2018-01-26T20:16:47.043Z,94.10
2018-01-26T20:22:08.191Z,94.30
2018-01-26T20:24:35.686Z,94.50
2018-01-26T20:27:03.173Z,94.60
2018-01-26T20:29:31.442Z,94.80
2018-01-26T20:31:59.676Z,94.80
2018-01-26T20:34:27.151Z,94.80
2018-01-26T20:36:55.430Z,94.90
2018-01-26T20:39:22.924Z,94.90
2018-01-26T20:41:51.188Z,95.10
2018-01-26T20:44:20.476Z,95.20
2018-01-26T20:46:48.757Z,95.20
2018-01-26T20:49:17.019Z,95.20
2018-01-26T20:51:44.505Z,95.20
2018-01-26T20:54:12.817Z,95.30
2018-01-26T20:56:41.165Z,95.30
2018-01-26T20:59:08.681Z,95.30
2018-01-26T21:01:36.259Z,95.30
2018-01-26T21:04:04.664Z,95.30
2018-01-26T21:06:32.140Z,95.30
2018-01-26T21:08:59.642Z,95.40
2018-01-26T21:11:27.327Z,95.40
2018-01-26T21:13:54.801Z,95.40
2018-01-26T21:16:22.462Z,95.50
2018-01-26T21:18:49.953Z,95.50
2018-01-26T21:21:17.501Z,95.60
2018-01-26T21:23:45.070Z,95.70
2018-01-26T21:26:12.638Z,95.70
2018-01-26T21:28:40.192Z,95.60
2018-01-26T21:31:07.703Z,95.70
2018-01-26T21:33:35.259Z,95.60
2018-01-26T21:36:02.789Z,95.60
2018-01-26T21:38:31.250Z,95.90
2018-01-26T21:40:59.723Z,95.70
2018-01-26T21:43:27.188Z,95.70
2018-01-26T21:45:54.685Z,95.50
2018-01-26T21:48:22.222Z,95.60
2018-01-26T21:50:49.671Z,95.60
2018-01-26T21:53:17.187Z,95.70
2018-01-26T21:55:44.647Z,95.60
2018-01-26T21:58:12.169Z,95.50
2018-01-26T22:00:40.621Z,95.60
2018-01-26T22:03:08.069Z,95.60
2018-01-26T22:05:35.579Z,95.60
2018-01-26T22:08:03.086Z,95.60
2018-01-26T22:10:30.729Z,95.50
2018-01-26T22:12:58.202Z,95.50
2018-01-26T22:15:25.714Z,95.50
2018-01-26T22:17:53.211Z,95.60
2018-01-26T22:20:20.767Z,95.60
2018-01-26T22:22:48.283Z,95.70
2018-01-26T22:25:15.786Z,95.60
2018-01-26T22:27:43.218Z,95.60
2018-01-26T22:30:10.852Z,95.70
2018-01-26T22:32:38.307Z,95.60
2018-01-26T22:35:05.822Z,95.70
2018-01-26T22:37:33.315Z,95.70
2018-01-26T22:40:01.570Z,96.00
2018-01-26T22:42:29.053Z,95.60
2018-01-26T22:44:56.546Z,95.40
2018-01-26T22:47:24.050Z,95.50
2018-01-26T22:49:52.263Z,95.50
2018-01-26T22:52:19.770Z,95.50
2018-01-26T22:54:47.269Z,95.50
2018-01-26T22:57:14.761Z,95.50
2018-01-26T22:59:42.199Z,95.60
2018-01-26T23:02:09.651Z,95.50
2018-01-26T23:04:37.098Z,95.40
2018-01-26T23:07:04.604Z,95.30
2018-01-26T23:09:32.085Z,95.30
2018-01-26T23:12:00.306Z,95.40
2018-01-26T23:14:27.779Z,95.30
2018-01-26T23:16:55.247Z,95.30
2018-01-26T23:19:22.808Z,95.40
2018-01-26T23:21:50.305Z,95.50
2018-01-26T23:24:17.746Z,95.50
2018-01-26T23:26:45.256Z,95.40
2018-01-26T23:29:12.703Z,95.50
2018-01-26T23:31:40.206Z,95.10
2018-01-26T23:34:08.468Z,95.10
2018-01-26T23:36:36.938Z,95.20
2018-01-26T23:39:05.212Z,95.30
2018-01-26T23:41:32.652Z,95.30
2018-01-26T23:44:00.101Z,95.40
2018-01-26T23:46:27.563Z,95.30
2018-01-26T23:48:55.019Z,95.30
2018-01-26T23:51:22.475Z,95.40
2018-01-26T23:53:49.924Z,95.50
2018-01-26T23:56:17.423Z,95.50
2018-01-26T23:58:45.634Z,95.50
